Time;durP1;ratioP1;P1;durP2;ratioP2;P2;SDS_P1;SDS_P2;PMS_P1;PMS_P2;Temp;Humidity;BMP_temperature;BMP_pressure;BME280_temperature;BME280_humidity;BME280_pressure;Samples;Min_cycle;Max_cycle;Signal;HPM_P1;HPM_P2
2020/12/21 00:02:27;;;;;;;43.02;14.78;;;;;;;15.78;56.21;155267.75;1795017;79;21176;-67
2020/12/21 00:04:59;;;;;;;40.60;15.43;;;;;;;15.65;56.31;155233.50;1795014;80;21375;-67
2020/12/21 00:07:34;;;;;;;48.02;16.45;;;;;;;15.59;56.44;155217.73;1795915;79;21313;-67
2020/12/21 00:10:07;;;;;;;47.98;18.20;;;;;;;15.60;56.56;155220.36;1794734;79;21689;-67
2020/12/21 00:12:40;;;;;;;45.33;16.27;;;;;;;15.55;56.53;155205.88;1793371;80;21302;-67
2020/12/21 00:15:13;;;;;;;46.35;16.35;;;;;;;15.49;56.57;155190.06;1793920;80;21832;-67
2020/12/21 00:17:46;;;;;;;45.28;15.72;;;;;;;15.47;56.69;155184.78;1746868;82;21437;-67
2020/12/21 00:20:19;;;;;;;47.80;14.15;;;;;;;15.48;56.78;155188.77;1755000;82;21253;-67
2020/12/21 00:22:52;;;;;;;44.23;14.85;;;;;;;15.48;56.75;155187.42;1722661;80;21230;-67
2020/12/21 00:25:24;;;;;;;45.17;14.20;;;;;;;15.44;56.79;155178.22;1734672;80;21162;-67
2020/12/21 00:27:57;;;;;;;44.00;15.08;;;;;;;15.41;56.79;155169.00;1730215;81;21464;-67
2020/12/21 00:30:30;;;;;;;40.80;13.43;;;;;;;15.35;56.84;155151.89;1750052;82;21249;-67
2020/12/21 00:33:03;;;;;;;35.28;11.90;;;;;;;15.27;56.90;155130.84;1714738;82;21171;-67
2020/12/21 00:35:36;;;;;;;34.63;11.93;;;;;;;15.31;56.96;155141.34;1723134;82;21668;-67
2020/12/21 00:38:10;;;;;;;31.52;11.28;;;;;;;15.36;56.96;155155.81;1747491;82;21325;-67
2020/12/21 00:40:42;;;;;;;37.60;11.48;;;;;;;15.38;56.85;155162.44;1729406;83;21330;-66
2020/12/21 00:43:15;;;;;;;31.15;13.05;;;;;;;15.52;56.50;155197.97;1755301;82;21260;-67
2020/12/21 00:45:47;;;;;;;28.42;11.48;;;;;;;15.48;56.33;155188.77;1747147;80;21323;-67
2020/12/21 00:48:21;;;;;;;26.07;11.25;;;;;;;15.50;56.42;155194.03;1747412;82;21414;-67
2020/12/21 00:50:54;;;;;;;29.67;10.55;;;;;;;15.55;56.52;155205.88;1746905;82;21368;-67
2020/12/21 00:53:28;;;;;;;23.32;9.53;;;;;;;15.63;56.47;155228.23;1747542;82;21175;-67
2020/12/21 00:56:04;;;;;;;24.00;9.83;;;;;;;15.68;56.38;155241.42;1747002;80;21366;-66
2020/12/21 00:58:37;;;;;;;25.85;9.68;;;;;;;15.69;56.23;155242.72;1747587;82;21797;-67
2020/12/21 01:01:15;;;;;;;20.25;9.23;;;;;;;15.64;56.14;155229.56;1739577;81;21146;-66
2020/12/21 01:03:49;;;;;;;21.15;9.45;;;;;;;15.37;56.42;155158.47;1734406;81;21804;-67
2020/12/21 01:06:22;;;;;;;18.40;8.18;;;;;;;15.30;56.54;155140.05;1803803;79;21300;-66
2020/12/21 01:08:58;;;;;;;16.60;7.90;;;;;;;15.31;56.63;155141.34;1803832;79;21305;-66
2020/12/21 01:11:31;;;;;;;19.92;7.80;;;;;;;15.29;56.64;155136.06;1803891;79;21336;-66
2020/12/21 01:14:03;;;;;;;16.55;7.85;;;;;;;15.44;56.63;155176.92;1802635;79;21190;-66
2020/12/21 01:16:36;;;;;;;16.62;7.28;;;;;;;15.61;56.12;155223.00;1768014;80;21301;-66
2020/12/21 01:19:10;;;;;;;12.82;6.40;;;;;;;15.37;56.35;155158.47;1801500;79;21304;-66
2020/12/21 01:21:44;;;;;;;17.05;7.37;;;;;;;15.30;56.43;155138.70;1804233;79;21202;-67
2020/12/21 01:24:17;;;;;;;12.45;5.78;;;;;;;15.25;56.52;155126.86;1734000;81;21198;-66
2020/12/21 01:26:50;;;;;;;13.05;6.25;;;;;;;15.23;56.55;155120.25;1803945;78;21287;-67
2020/12/21 01:29:22;;;;;;;15.53;6.65;;;;;;;15.22;56.64;155117.61;1803968;79;21304;-66
2020/12/21 01:31:55;;;;;;;14.15;6.97;;;;;;;15.19;56.57;155109.70;1799863;79;21307;-66
2020/12/21 01:34:28;;;;;;;16.50;6.37;;;;;;;15.16;56.49;155101.84;1804169;79;21162;-66
2020/12/21 01:37:00;;;;;;;14.87;6.83;;;;;;;15.07;56.56;155078.11;1802478;79;21796;-66
2020/12/21 01:39:33;;;;;;;13.95;6.40;;;;;;;15.07;56.71;155079.45;1794394;79;21305;-66
2020/12/21 01:42:06;;;;;;;13.25;6.20;;;;;;;15.08;56.63;155082.09;1803842;79;21168;-67
2020/12/21 01:44:38;;;;;;;16.75;6.72;;;;;;;15.09;56.63;155083.38;1803596;79;21210;-66
2020/12/21 01:47:12;;;;;;;13.72;6.28;;;;;;;15.10;56.69;155087.36;1803185;79;21151;-66
2020/12/21 01:49:46;;;;;;;15.68;6.53;;;;;;;15.09;56.65;155084.72;1804001;79;21793;-67
2020/12/21 01:52:19;;;;;;;16.45;7.35;;;;;;;15.08;56.75;155082.09;1800862;79;21352;-66
2020/12/21 01:54:52;;;;;;;13.30;6.37;;;;;;;15.15;56.89;155099.20;1803638;79;21172;-66
2020/12/21 01:57:24;;;;;;;15.45;6.20;;;;;;;15.24;56.75;155122.88;1800299;79;21301;-66
2020/12/21 01:59:57;;;;;;;15.00;6.87;;;;;;;15.29;56.57;155136.06;1804018;79;21151;-66
2020/12/21 02:02:29;;;;;;;14.75;7.25;;;;;;;15.25;56.43;155125.56;1803936;79;21785;-67
2020/12/21 02:05:03;;;;;;;14.18;6.62;;;;;;;15.24;56.54;155122.88;1798120;79;21700;-68
2020/12/21 02:07:35;;;;;;;16.45;7.80;;;;;;;15.25;56.43;155125.56;1795108;80;21847;-66
2020/12/21 02:10:09;;;;;;;15.48;7.15;;;;;;;15.15;56.32;155100.50;1795414;80;21167;-66
2020/12/21 02:12:42;;;;;;;16.50;7.05;;;;;;;15.12;56.50;155091.30;1795361;80;21214;-66
2020/12/21 02:15:14;;;;;;;18.75;7.17;;;;;;;15.11;56.52;155088.66;1795323;79;21166;-68
2020/12/21 02:17:47;;;;;;;15.83;6.10;;;;;;;15.08;56.58;155082.09;1791134;79;21319;-66
2020/12/21 02:20:32;;;;;;;12.20;5.83;;;;;;;15.08;56.54;155080.75;1789046;80;21300;-66
2020/12/21 02:23:04;;;;;;;11.88;5.67;;;;;;;15.10;56.65;155086.02;1795568;80;21210;-66
2020/12/21 02:25:38;;;;;;;11.50;5.70;;;;;;;15.16;56.64;155103.13;1795665;79;21378;-66
2020/12/21 02:28:10;;;;;;;13.00;5.30;;;;;;;15.21;56.46;155114.97;1790013;78;21335;-67
2020/12/21 02:30:43;;;;;;;16.17;5.58;;;;;;;15.22;56.37;155117.61;1793377;80;21319;-66
2020/12/21 02:33:16;;;;;;;11.53;5.35;;;;;;;15.23;56.26;155120.25;1795392;80;21170;-66
2020/12/21 02:35:49;;;;;;;10.72;5.45;;;;;;;15.22;56.20;155117.61;1795907;79;21159;-67
2020/12/21 02:38:22;;;;;;;11.97;5.72;;;;;;;15.22;56.27;155118.91;1790535;78;21173;-67
2020/12/21 02:40:54;;;;;;;13.93;7.08;;;;;;;15.22;56.16;155117.61;1791053;80;21351;-66
2020/12/21 02:43:28;;;;;;;17.40;6.65;;;;;;;15.24;56.14;155122.88;1794730;80;21360;-66
2020/12/21 02:46:00;;;;;;;13.55;6.87;;;;;;;15.23;56.17;155121.53;1791441;79;21390;-66
2020/12/21 02:48:33;;;;;;;15.58;7.47;;;;;;;15.24;56.05;155122.88;1795160;79;21516;-66
2020/12/21 02:51:06;;;;;;;12.95;6.75;;;;;;;15.16;56.13;155101.84;1795336;80;21162;-66
2020/12/21 02:53:39;;;;;;;13.60;6.83;;;;;;;15.10;56.14;155086.02;1789869;80;21302;-66
2020/12/21 02:56:13;;;;;;;16.02;7.53;;;;;;;15.06;56.27;155075.47;1795326;79;21175;-66
2020/12/21 02:58:46;;;;;;;14.60;6.75;;;;;;;15.08;56.27;155080.75;1784048;80;21170;-66
2020/12/21 03:01:18;;;;;;;16.20;6.95;;;;;;;15.11;56.36;155088.66;1795119;80;21306;-67
2020/12/21 03:03:50;;;;;;;13.08;6.22;;;;;;;15.11;56.34;155088.66;1794677;80;21206;-66
2020/12/21 03:06:23;;;;;;;15.10;6.55;;;;;;;15.08;56.28;155080.75;1795569;79;21178;-66
2020/12/21 03:08:56;;;;;;;14.90;6.67;;;;;;;15.07;56.30;155078.11;1795661;80;21301;-66
2020/12/21 03:11:29;;;;;;;12.40;6.40;;;;;;;15.09;56.38;155083.38;1793888;80;21287;-66
2020/12/21 03:14:02;;;;;;;15.65;6.75;;;;;;;15.08;56.44;155080.75;1794638;79;21361;-66
2020/12/21 03:16:34;;;;;;;15.08;5.97;;;;;;;15.13;56.42;155093.92;1795243;79;21159;-66
2020/12/21 03:19:07;;;;;;;15.00;5.78;;;;;;;15.10;56.40;155087.36;1795682;80;21163;-66
2020/12/21 03:21:39;;;;;;;13.78;6.30;;;;;;;15.10;56.42;155087.36;1790113;79;21363;-67
2020/12/21 03:24:12;;;;;;;13.28;7.12;;;;;;;15.11;56.44;155089.94;1790561;80;21321;-66
2020/12/21 03:26:46;;;;;;;19.20;7.37;;;;;;;15.10;56.53;155087.36;1789908;78;21210;-66
2020/12/21 03:29:19;;;;;;;14.38;6.75;;;;;;;15.13;56.54;155095.22;1795425;80;21780;-66
2020/12/21 03:31:51;;;;;;;13.88;6.03;;;;;;;15.12;56.55;155091.30;1781691;80;21309;-66
2020/12/21 03:34:24;;;;;;;19.05;7.53;;;;;;;15.09;56.54;155083.38;1796699;79;21174;-66
2020/12/21 03:36:57;;;;;;;31.87;12.18;;;;;;;15.10;56.49;155086.02;1784618;79;21806;-66
2020/12/21 03:39:30;;;;;;;25.25;10.40;;;;;;;15.05;56.42;155074.19;1795190;79;21217;-68
2020/12/21 03:42:03;;;;;;;23.55;9.58;;;;;;;15.00;56.59;155061.00;1795967;79;21321;-66
2020/12/21 03:44:35;;;;;;;26.65;10.32;;;;;;;14.98;56.72;155054.44;1795166;80;21332;-67
2020/12/21 03:47:08;;;;;;;33.42;12.43;;;;;;;14.96;56.83;155049.16;1795369;80;21354;-66
2020/12/21 03:49:40;;;;;;;41.48;15.05;;;;;;;14.93;56.99;155042.59;1795380;80;21294;-66
2020/12/21 03:52:13;;;;;;;35.75;13.60;;;;;;;14.89;57.02;155030.75;1795064;79;21154;-67
2020/12/21 03:54:46;;;;;;;31.97;11.95;;;;;;;14.99;56.98;155058.36;1794993;80;21690;-67
2020/12/21 03:57:19;;;;;;;26.73;10.95;;;;;;;15.07;56.89;155078.11;1795542;79;21209;-66
2020/12/21 03:59:52;;;;;;;27.20;10.58;;;;;;;15.08;56.91;155082.09;1793543;79;21175;-66
2020/12/21 04:02:25;;;;;;;22.82;9.28;;;;;;;15.16;56.94;155101.84;1792533;80;21213;-66
2020/12/21 04:04:58;;;;;;;22.98;10.18;;;;;;;15.21;56.90;155114.97;1795327;80;21233;-67
2020/12/21 04:07:30;;;;;;;22.55;9.00;;;;;;;15.24;56.81;155122.88;1791570;79;21174;-67
2020/12/21 04:10:05;;;;;;;26.27;9.43;;;;;;;15.07;57.05;155078.11;1808048;78;21347;-66
2020/12/21 04:12:37;;;;;;;23.87;9.13;;;;;;;14.97;57.07;155053.14;1810285;79;21800;-66
2020/12/21 04:15:10;;;;;;;23.15;9.93;;;;;;;14.93;57.21;155041.30;1800040;79;21317;-66
2020/12/21 04:17:43;;;;;;;23.25;9.60;;;;;;;15.05;57.07;155072.83;1809293;79;21166;-67
2020/12/21 04:20:15;;;;;;;18.52;8.75;;;;;;;14.97;57.20;155051.80;1810093;79;21143;-66
2020/12/21 04:22:48;;;;;;;22.73;9.20;;;;;;;15.03;57.16;155067.63;1804411;79;21296;-66
2020/12/21 04:25:21;;;;;;;19.48;8.20;;;;;;;14.98;57.37;155055.78;1809514;79;21144;-66
2020/12/21 04:27:54;;;;;;;16.55;6.67;;;;;;;14.95;57.42;155046.52;1808232;79;21300;-66
2020/12/21 04:30:26;;;;;;;21.65;8.15;;;;;;;14.90;57.62;155034.69;1807558;79;21178;-66
2020/12/21 04:32:59;;;;;;;22.22;9.90;;;;;;;14.94;57.81;155045.22;1802327;79;21293;-66
2020/12/21 04:35:31;;;;;;;27.13;9.65;;;;;;;14.97;57.79;155053.14;1810372;79;21182;-66
2020/12/21 04:38:04;;;;;;;24.27;8.80;;;;;;;14.99;57.71;155058.36;1791398;79;21310;-67
2020/12/21 04:40:37;;;;;;;32.78;12.75;;;;;;;14.97;57.72;155053.14;1782918;79;21680;-66
2020/12/21 04:43:10;;;;;;;31.27;11.73;;;;;;;14.96;57.81;155050.50;1802240;79;21347;-66
2020/12/21 04:45:45;;;;;;;21.02;9.30;;;;;;;14.94;57.91;155043.89;1803565;79;21820;-65
2020/12/21 04:48:17;;;;;;;18.05;7.87;;;;;;;14.95;58.55;155047.86;1809978;79;21170;-65
2020/12/21 04:50:54;;;;;;;20.85;8.18;;;;;;;15.07;58.39;155078.11;1810396;79;21182;-65
2020/12/21 04:53:27;;;;;;;18.12;7.55;;;;;;;15.04;58.42;155071.53;1800732;79;21171;-65
2020/12/21 04:56:00;;;;;;;21.07;7.58;;;;;;;15.20;58.36;155113.69;1795097;78;21812;-65
2020/12/21 04:58:34;;;;;;;17.82;7.95;;;;;;;15.24;58.17;155122.88;1806717;79;21308;-68
2020/12/21 05:01:06;;;;;;;17.25;7.92;;;;;;;15.09;58.42;155084.72;1807666;79;21164;-62
2020/12/21 05:03:39;;;;;;;29.12;13.72;;;;;;;15.05;58.08;155074.19;1801926;79;21441;-64
2020/12/21 05:06:13;;;;;;;22.95;10.95;;;;;;;15.07;57.92;155078.11;1796035;79;21847;-67
2020/12/21 05:08:47;;;;;;;18.20;8.00;;;;;;;15.06;57.66;155075.47;1798386;79;21312;-64
2020/12/21 05:11:22;;;;;;;17.85;8.00;;;;;;;15.03;57.78;155067.63;1795487;79;21356;-68
2020/12/21 05:13:57;;;;;;;17.92;8.30;;;;;;;15.09;57.43;155083.38;1789237;79;21269;-69
2020/12/21 05:16:31;;;;;;;21.73;10.35;;;;;;;14.96;57.73;155049.16;1771245;79;21336;-68
2020/12/21 05:19:05;;;;;;;14.23;6.97;;;;;;;14.96;57.43;155049.16;1793555;78;21328;-68
2020/12/21 05:21:38;;;;;;;24.30;12.78;;;;;;;14.92;57.27;155039.95;1781322;79;21721;-70
2020/12/21 05:24:11;;;;;;;36.17;19.27;;;;;;;14.86;57.42;155022.84;1792373;79;21356;-69
2020/12/21 05:26:44;;;;;;;43.23;22.55;;;;;;;14.82;57.50;155013.64;1800776;78;21689;-72
2020/12/21 05:29:29;;;;;;;49.20;25.65;;;;;;;14.85;57.38;155020.20;1797843;79;21158;-67
2020/12/21 05:32:02;;;;;;;49.70;24.02;;;;;;;14.87;57.45;155025.48;1795980;79;21366;-69
2020/12/21 05:34:35;;;;;;;43.15;21.87;;;;;;;14.92;57.38;155039.95;1799223;79;21306;-69
2020/12/21 05:37:17;;;;;;;32.40;19.25;;;;;;;14.98;57.35;155055.78;1793150;78;21320;-69
2020/12/21 05:39:54;;;;;;;26.25;14.80;;;;;;;15.01;57.24;155062.34;1794583;79;21826;-69
2020/12/21 05:42:27;;;;;;;24.50;14.93;;;;;;;15.03;57.18;155068.91;1799890;78;21352;-73
2020/12/21 05:45:04;;;;;;;18.40;9.95;;;;;;;15.05;57.15;155072.83;1795263;79;21324;-66
2020/12/21 05:47:46;;;;;;;17.98;9.70;;;;;;;15.06;57.13;155076.81;1765088;79;21174;-71
2020/12/21 05:50:22;;;;;;;13.98;7.33;;;;;;;15.12;57.10;155092.58;1794171;79;21880;-70
2020/12/21 05:52:55;;;;;;;10.85;5.90;;;;;;;15.16;56.88;155101.84;1797147;78;22435;-68
2020/12/21 05:55:29;;;;;;;10.28;4.53;;;;;;;15.12;56.66;155092.58;1797777;79;21261;-71
2020/12/21 05:58:03;;;;;;;10.55;5.30;;;;;;;15.07;56.73;155078.11;1801827;79;21399;-73
2020/12/21 06:03:41;;;;;;;10.80;5.67;;;;;;;15.15;56.68;155099.20;1797566;79;21975;-71
2020/12/21 06:06:24;;;;;;;28.27;15.85;;;;;;;15.09;56.63;155084.72;1804356;79;21800;-69
2020/12/21 06:08:58;;;;;;;26.33;13.55;;;;;;;15.00;56.48;155061.00;1792544;78;21194;-70
2020/12/21 06:11:34;;;;;;;19.32;11.22;;;;;;;14.91;56.63;155037.31;1716297;82;21231;-68
2020/12/21 06:14:12;;;;;;;21.48;11.90;;;;;;;14.88;56.63;155029.41;1752912;82;21662;-71
2020/12/21 06:16:44;;;;;;;19.55;10.75;;;;;;;15.02;56.42;155066.27;1697059;82;21225;-68
2020/12/21 06:19:25;;;;;;;14.05;7.47;;;;;;;14.90;56.54;155033.39;1663377;85;21335;-67
2020/12/21 06:21:58;;;;;;;14.30;6.83;;;;;;;14.82;56.90;155012.31;1788379;80;21263;-67
2020/12/21 06:24:34;;;;;;;11.95;6.33;;;;;;;14.76;56.84;154996.53;1773535;80;21207;-69
2020/12/21 06:27:16;;;;;;;14.13;7.45;;;;;;;14.76;56.96;154996.53;1766547;80;21367;-68
2020/12/21 06:29:59;;;;;;;17.90;8.65;;;;;;;14.74;56.86;154992.61;1786713;80;21162;-68
2020/12/21 06:32:34;;;;;;;17.80;8.08;;;;;;;14.75;56.90;154993.91;1769450;80;21333;-67
2020/12/21 06:35:18;;;;;;;28.40;13.78;;;;;;;14.72;58.16;154987.34;1763366;80;21310;-67
2020/12/21 06:38:00;;;;;;;56.08;28.57;;;;;;;14.72;57.38;154987.34;1772797;81;21698;-67
2020/12/21 06:40:37;;;;;;;44.08;22.32;;;;;;;14.73;57.42;154989.97;1772828;81;21619;-68
2020/12/21 06:43:12;;;;;;;36.17;19.50;;;;;;;14.77;57.34;154999.17;1729120;82;22064;-68
2020/12/21 06:45:45;;;;;;;35.25;17.30;;;;;;;14.73;57.81;154989.97;1701503;83;21313;-68
2020/12/21 06:48:25;;;;;;;28.02;13.72;;;;;;;14.74;57.81;154991.27;1714384;82;21242;-69
2020/12/21 06:50:58;;;;;;;21.25;10.32;;;;;;;14.76;58.07;154996.53;1673575;84;21192;-67
2020/12/21 06:53:31;;;;;;;20.77;11.15;;;;;;;14.70;58.29;154982.06;1702748;83;21315;-68
2020/12/21 06:56:15;;;;;;;29.48;17.05;;;;;;;14.79;58.05;155004.44;1719744;82;21316;-68
2020/12/21 06:58:47;;;;;;;34.60;19.87;;;;;;;14.80;59.37;155008.38;1732702;82;21172;-71
2020/12/21 07:01:21;;;;;;;40.73;20.88;;;;;;;14.81;58.71;155011.00;1725346;82;21186;-69
2020/12/21 07:03:54;;;;;;;48.52;25.30;;;;;;;14.83;58.69;155016.28;1717048;82;21679;-70
2020/12/21 07:06:31;;;;;;;39.88;22.75;;;;;;;14.88;58.47;155028.12;1729626;82;21361;-69
2020/12/21 07:09:03;;;;;;;46.23;24.92;;;;;;;14.95;58.36;155046.52;1682915;83;21264;-69
2020/12/21 07:11:37;;;;;;;39.33;21.25;;;;;;;14.96;58.26;155050.50;1682748;84;21194;-69
2020/12/21 07:14:12;;;;;;;28.52;15.98;;;;;;;14.96;57.85;155050.50;1701959;84;21218;-69
2020/12/21 07:16:44;;;;;;;32.15;18.05;;;;;;;14.97;58.10;155051.80;1683233;84;21250;-69
2020/12/21 07:19:20;;;;;;;39.10;21.90;;;;;;;15.00;58.00;155061.00;1702073;84;21320;-69
2020/12/21 07:21:50;;;;;;;30.88;16.45;;;;;;;15.08;58.02;155080.75;1722962;83;21348;-69
2020/12/21 07:24:25;;;;;;;20.37;11.00;;;;;;;15.17;58.24;155104.42;1717873;83;21195;-69
2020/12/21 07:26:57;;;;;;;25.23;11.85;;;;;;;15.26;57.80;155129.50;1717672;82;21249;-70
2020/12/21 07:29:35;;;;;;;23.25;11.73;;;;;;;15.30;57.94;155138.70;1717982;83;21214;-70
2020/12/21 07:32:07;;;;;;;21.85;12.05;;;;;;;15.33;57.34;155146.62;1717909;83;21211;-70
2020/12/21 07:34:40;;;;;;;21.23;11.43;;;;;;;15.30;57.21;155140.05;1717910;83;21171;-70
2020/12/21 07:37:12;;;;;;;22.93;13.32;;;;;;;15.30;57.04;155140.05;1717846;82;21205;-70
2020/12/21 07:39:50;;;;;;;21.20;12.40;;;;;;;15.33;56.97;155147.95;1717890;83;21191;-70
2020/12/21 07:42:20;;;;;;;22.77;14.58;;;;;;;15.17;57.16;155105.77;1717598;83;21861;-70
2020/12/21 07:44:58;;;;;;;20.27;13.40;;;;;;;15.16;57.46;155103.13;1717881;82;21253;-70
2020/12/21 07:47:33;;;;;;;12.58;7.33;;;;;;;15.22;57.35;155117.61;1717669;83;21201;-70
2020/12/21 07:50:07;;;;;;;17.27;11.05;;;;;;;15.64;57.44;155229.56;1717601;82;21210;-68
2020/12/21 07:52:39;;;;;;;10.20;6.10;;;;;;;15.48;56.93;155188.77;1717972;83;21321;-68
2020/12/21 07:55:12;;;;;;;13.88;9.10;;;;;;;15.38;57.16;155162.44;1717892;83;21210;-68
2020/12/21 07:57:44;;;;;;;8.35;4.97;;;;;;;15.35;57.06;155153.19;1717730;83;21273;-68
2020/12/21 08:00:16;;;;;;;9.08;5.60;;;;;;;15.37;56.64;155157.16;1717634;83;21254;-68
2020/12/21 08:02:51;;;;;;;6.58;4.20;;;;;;;15.87;55.95;155290.16;1718017;83;21234;-68
2020/12/21 08:05:23;;;;;;;8.38;4.55;;;;;;;15.48;56.50;155188.77;1717889;83;21729;-68
2020/12/21 08:07:57;;;;;;;5.85;4.50;;;;;;;15.51;56.56;155195.33;1717672;83;21194;-68
2020/12/21 08:10:29;;;;;;;8.65;4.67;;;;;;;15.56;56.30;155208.52;1719038;82;21412;-69
2020/12/21 08:13:01;;;;;;;7.37;4.67;;;;;;;15.51;56.37;155195.33;1736776;82;21736;-68
2020/12/21 08:15:34;;;;;;;7.78;4.53;;;;;;;15.43;56.07;155175.58;1736920;82;21249;-68
2020/12/21 08:18:14;;;;;;;8.85;5.20;;;;;;;15.42;56.22;155172.94;1736843;82;21206;-68
2020/12/21 08:20:53;;;;;;;21.00;15.00;;;;;;;15.40;56.20;155167.66;1736934;82;21198;-68
2020/12/21 08:23:30;;;;;;;30.30;18.65;;;;;;;15.44;56.24;155178.22;1736749;82;21203;-68
2020/12/21 08:26:03;;;;;;;15.25;9.18;;;;;;;15.42;56.21;155171.66;1736764;81;21651;-68
2020/12/21 08:28:38;;;;;;;12.68;8.33;;;;;;;15.44;56.26;155178.22;1719015;82;21187;-68
2020/12/21 08:31:19;;;;;;;8.35;5.22;;;;;;;15.50;56.27;155194.03;1736756;82;21697;-68
2020/12/21 08:34:06;;;;;;;7.60;4.30;;;;;;;15.59;56.15;155216.37;1737275;82;21678;-68
2020/12/21 08:36:39;;;;;;;7.05;4.22;;;;;;;15.61;55.96;155223.00;1736741;82;21214;-68
2020/12/21 08:39:21;;;;;;;6.65;4.58;;;;;;;15.54;55.63;155204.53;1736852;82;21333;-68
2020/12/21 08:42:04;;;;;;;9.23;5.28;;;;;;;15.51;55.70;155195.33;1736835;82;21261;-68
2020/12/21 08:44:31;;;;;;;9.40;6.03;;;;;;;15.49;55.79;155190.06;1736577;82;21202;-68
2020/12/21 08:47:04;;;;;;;9.55;5.00;;;;;;;15.53;55.79;155201.91;1736819;82;21348;-68
2020/12/21 08:49:36;;;;;;;13.65;8.78;;;;;;;15.56;55.94;155208.52;1736868;82;21203;-68
2020/12/21 08:52:08;;;;;;;10.93;7.37;;;;;;;15.57;56.16;155212.45;1736958;82;21195;-69
2020/12/21 08:54:40;;;;;;;10.05;5.80;;;;;;;15.60;56.06;155219.03;1736930;82;21792;-68
2020/12/21 08:57:13;;;;;;;13.10;8.68;;;;;;;15.57;56.06;155211.11;1737022;82;21329;-69
2020/12/21 08:59:46;;;;;;;9.05;4.95;;;;;;;15.50;57.88;155192.69;1755154;81;21178;-69
2020/12/21 09:02:19;;;;;;;23.02;16.32;;;;;;;15.47;57.13;155184.78;1766921;81;21152;-75
2020/12/21 09:04:52;;;;;;;12.60;7.05;;;;;;;15.40;57.38;155167.66;1758104;81;21226;-69
2020/12/21 09:07:28;;;;;;;11.20;5.80;;;;;;;15.35;57.99;155151.89;1745779;82;21189;-68
2020/12/21 09:10:01;;;;;;;10.43;6.03;;;;;;;15.31;58.13;155141.34;1746423;81;21390;-66
2020/12/21 09:12:35;;;;;;;10.53;6.30;;;;;;;15.37;57.86;155157.16;1753460;81;21232;-65
2020/12/21 09:15:08;;;;;;;35.60;22.17;;;;;;;15.39;57.87;155163.73;1755377;81;21233;-66
2020/12/21 09:17:40;;;;;;;14.13;7.00;;;;;;;15.43;57.55;155174.28;1753633;81;21376;-66
2020/12/21 09:20:13;;;;;;;17.95;10.63;;;;;;;15.46;59.13;155182.14;1752719;80;21340;-66
2020/12/21 09:22:46;;;;;;;16.60;10.95;;;;;;;15.44;59.18;155178.22;1746267;81;21203;-66
2020/12/21 09:25:19;;;;;;;10.78;6.28;;;;;;;15.44;58.62;155176.92;1752006;81;21372;-65
2020/12/21 09:27:53;;;;;;;11.30;6.62;;;;;;;15.39;58.91;155163.73;1753827;81;21195;-65
2020/12/21 09:30:26;;;;;;;20.23;13.55;;;;;;;15.43;58.96;155175.58;1756881;81;21668;-67
2020/12/21 09:32:59;;;;;;;14.18;6.97;;;;;;;15.44;58.85;155178.22;1749515;81;21683;-68
2020/12/21 09:35:33;;;;;;;10.48;5.55;;;;;;;15.43;59.85;155174.28;1751317;81;21165;-67
2020/12/21 09:38:05;;;;;;;13.05;7.37;;;;;;;15.39;60.26;155163.73;1752721;81;21837;-65
2020/12/21 09:40:38;;;;;;;12.07;7.10;;;;;;;15.29;59.81;155137.41;1753646;80;21321;-66
2020/12/21 09:43:11;;;;;;;23.05;12.53;;;;;;;15.23;58.70;155120.25;1751299;81;21227;-66
2020/12/21 09:45:46;;;;;;;23.00;11.30;;;;;;;15.12;58.76;155091.30;1743114;81;21308;-67
2020/12/21 09:48:18;;;;;;;14.80;7.58;;;;;;;15.06;58.17;155076.81;1708005;82;21218;-67
2020/12/21 09:50:51;;;;;;;10.20;5.45;;;;;;;15.03;57.92;155068.91;1709129;82;21176;-66
2020/12/21 09:53:24;;;;;;;10.38;5.08;;;;;;;15.04;57.69;155070.25;1701209;84;21212;-68
2020/12/21 09:55:56;;;;;;;9.20;5.30;;;;;;;15.07;57.52;155079.45;1699508;84;22194;-67
2020/12/21 09:58:31;;;;;;;14.40;7.33;;;;;;;15.15;57.16;155100.50;1692211;84;21243;-65
2020/12/21 10:01:06;;;;;;;16.10;8.78;;;;;;;15.21;57.26;155114.97;1694923;84;21167;-66
2020/12/21 10:03:42;;;;;;;75.35;33.53;;;;;;;15.21;56.95;155114.97;1701463;84;21214;-66
2020/12/21 10:06:14;;;;;;;24.77;14.28;;;;;;;15.22;57.39;155117.61;1701092;84;21219;-66
2020/12/21 10:08:47;;;;;;;11.78;6.78;;;;;;;15.22;56.93;155118.91;1691820;84;21337;-66
2020/12/21 10:11:20;;;;;;;12.05;6.58;;;;;;;15.20;56.37;155113.69;1687388;84;21353;-67
2020/12/21 10:13:53;;;;;;;13.50;7.53;;;;;;;15.17;55.93;155104.42;1710513;82;21196;-68
2020/12/21 10:16:25;;;;;;;11.40;6.55;;;;;;;15.12;56.37;155092.58;1727456;81;21407;-69
2020/12/21 10:18:58;;;;;;;17.15;10.08;;;;;;;15.07;57.27;155079.45;1729473;82;21316;-68
2020/12/21 10:21:31;;;;;;;10.50;6.67;;;;;;;15.02;58.90;155066.27;1733818;82;21258;-66
2020/12/21 10:24:05;;;;;;;13.32;7.10;;;;;;;14.94;58.82;155043.89;1733245;82;21793;-65
2020/12/21 10:26:41;;;;;;;11.88;7.33;;;;;;;14.88;58.95;155029.41;1724271;81;21356;-66
2020/12/21 10:29:14;;;;;;;15.20;7.65;;;;;;;14.90;59.74;155033.39;1706534;82;21286;-65
2020/12/21 10:31:47;;;;;;;16.45;7.72;;;;;;;14.95;59.74;155046.52;1729512;81;21275;-68
2020/12/21 10:34:19;;;;;;;16.10;9.23;;;;;;;15.01;60.44;155062.34;1732079;82;21278;-67
2020/12/21 10:36:53;;;;;;;17.70;10.68;;;;;;;14.97;58.92;155053.14;1705949;82;21227;-68
2020/12/21 10:39:26;;;;;;;15.25;7.00;;;;;;;14.98;58.63;155055.78;1744023;80;21347;-68
2020/12/21 10:41:58;;;;;;;14.58;7.55;;;;;;;15.03;58.24;155067.63;1736305;81;21230;-71
2020/12/21 10:44:31;;;;;;;14.83;7.55;;;;;;;14.97;57.95;155053.14;1744212;82;21392;-67
2020/12/21 10:47:04;;;;;;;15.50;7.60;;;;;;;15.00;57.85;155059.70;1741539;82;21226;-68
2020/12/21 10:49:37;;;;;;;17.05;8.95;;;;;;;15.00;57.61;155059.70;1732634;80;21174;-75
2020/12/21 10:52:10;;;;;;;17.82;7.72;;;;;;;14.99;57.81;155057.06;1732606;82;21295;-69
2020/12/21 10:54:42;;;;;;;16.57;7.78;;;;;;;14.98;57.49;155055.78;1703593;84;21211;-75
2020/12/21 10:57:15;;;;;;;14.53;7.12;;;;;;;15.02;57.07;155066.27;1725134;81;21235;-76
2020/12/21 10:59:47;;;;;;;13.62;7.00;;;;;;;15.12;56.92;155091.30;1734319;82;21710;-69
2020/12/21 11:02:20;;;;;;;14.87;6.55;;;;;;;15.04;57.63;155071.53;1705715;83;21261;-67
2020/12/21 11:04:53;;;;;;;15.50;8.20;;;;;;;15.06;57.50;155075.47;1734996;82;21222;-69
2020/12/21 11:07:28;;;;;;;20.50;8.63;;;;;;;15.05;57.28;155072.83;1736651;82;21195;-70
2020/12/21 11:10:03;;;;;;;19.95;8.33;;;;;;;15.05;57.18;155072.83;1732555;81;21213;-69
2020/12/21 11:12:37;;;;;;;18.05;8.48;;;;;;;15.02;57.43;155066.27;1735404;81;22156;-70
2020/12/21 11:15:10;;;;;;;18.15;8.10;;;;;;;15.09;58.22;155083.38;1739722;82;21832;-69
2020/12/21 11:17:43;;;;;;;16.42;8.28;;;;;;;15.19;58.10;155109.70;1744867;80;21890;-71
2020/12/21 11:20:16;;;;;;;18.75;9.20;;;;;;;15.24;57.40;155122.88;1709901;82;21345;-68
2020/12/21 11:22:49;;;;;;;19.23;8.25;;;;;;;15.26;56.55;155129.50;1799392;79;21855;-66
2020/12/21 11:25:21;;;;;;;18.40;8.85;;;;;;;15.14;56.60;155097.86;1796914;78;21332;-70
2020/12/21 11:27:54;;;;;;;20.65;9.83;;;;;;;15.14;56.36;155097.86;1789302;79;21233;-68
2020/12/21 11:30:27;;;;;;;20.17;10.08;;;;;;;15.04;55.61;155070.25;1798778;79;21422;-67
2020/12/21 11:33:06;;;;;;;54.73;26.73;;;;;;;14.97;55.67;155051.80;1799310;79;21813;-70
2020/12/21 11:35:34;;;;;;;70.78;41.70;;;;;;;14.93;55.58;155041.30;1794630;79;21368;-67
2020/12/21 11:38:06;;;;;;;31.90;16.80;;;;;;;14.89;55.46;155030.75;1791954;78;21313;-69
2020/12/21 11:40:39;;;;;;;23.80;12.30;;;;;;;14.84;55.17;155017.58;1797611;79;21302;-69
2020/12/21 11:43:12;;;;;;;18.45;8.83;;;;;;;14.81;54.82;155009.72;1798605;78;21299;-67
2020/12/21 11:45:50;;;;;;;18.10;8.70;;;;;;;14.82;55.08;155013.64;1797295;79;21212;-68
2020/12/21 11:48:23;;;;;;;18.30;7.40;;;;;;;14.87;55.04;155026.78;1794715;79;21315;-69